Élőkép

Információk

Albatrosz Repülő Egyesület
8000 Székesfehérvár,
Radványi utca 6.

Adószám:
19092908-2-07

Bankszámla szám:
Budapest Bank
10102952-01361819-00000001

Telefon: +36 30 9598-897

Telephey: Börgönd repülőtér

Börgöndi repülõtér

LHBP METAR/TAF

[source: ADDS]
METAR
TAF LHBP 181100Z 1812/1912 13010KT 9999 SCT043 BECMG 1812/1814 CAVOK BECMG 1815/1818 08004KT BECMG 1907/1910 14010KT TEMPO 1909/1912 FEW040 BKN070 TAF
TAF LHBP 181100Z 1812/1912 13010KT 9999 SCT043 BECMG 1812/1814 CAVOK BECMG 1815/1818 08004KT BECMG 1907/1910 14010KT TEMPO 1909/1912 FEW040 BKN070 =
SR / SS: 04:30 / 16:53 UTC (Börgönd 2014-09-18)
Hungarian Chinese (Simplified) Croatian Czech English Finnish French German Hebrew Italian Japanese Polish Portuguese Romanian Russian Serbian Slovak Slovenian Spanish

Belépés tagoknak